Time;durP1;ratioP1;P1;durP2;ratioP2;P2;SDS_P1;SDS_P2;PMS_P1;PMS_P2;Temp;Humidity;BMP_temperature;BMP_pressure;BME280_temperature;BME280_humidity;BME280_pressure;Samples;Min_cycle;Max_cycle;Signal;HPM_P1;HPM_P2
2022/07/26 03:02:36;;;;;;;5.15;1.77;;;29.40;40.50;;;;;;4907955;28;46902;-68
2022/07/26 03:05:03;;;;;;;2.75;1.52;;;29.40;40.60;;;;;;4896260;28;47279;-68
2022/07/26 03:07:30;;;;;;;3.42;1.80;;;29.30;40.40;;;;;;4925153;28;45180;-68
2022/07/26 03:09:57;;;;;;;5.22;1.77;;;29.30;40.40;;;;;;4912758;28;45203;-68
2022/07/26 03:12:24;;;;;;;2.42;1.63;;;29.30;40.30;;;;;;4913304;28;44944;-69
2022/07/26 03:14:50;;;;;;;3.92;1.45;;;29.30;40.30;;;;;;4911876;28;44980;-68
2022/07/26 03:17:16;;;;;;;3.47;1.63;;;29.30;40.30;;;;;;4928489;28;45269;-68
2022/07/26 03:19:43;;;;;;;3.22;1.65;;;29.30;40.30;;;;;;4925013;28;44943;-68
2022/07/26 03:22:09;;;;;;;2.78;1.15;;;29.30;40.30;;;;;;4926685;28;44883;-68
2022/07/26 03:24:36;;;;;;;3.97;1.88;;;29.30;40.20;;;;;;4910557;28;45676;-68
2022/07/26 03:27:02;;;;;;;4.28;1.35;;;29.30;40.20;;;;;;4924528;28;45166;-69
2022/07/26 03:29:29;;;;;;;6.15;1.40;;;29.20;40.10;;;;;;4922468;28;45521;-69
2022/07/26 03:31:55;;;;;;;2.15;1.60;;;29.20;40.00;;;;;;4919465;28;45104;-69
2022/07/26 03:34:21;;;;;;;5.65;1.30;;;29.30;40.00;;;;;;4925654;28;46339;-68
2022/07/26 03:36:47;;;;;;;3.83;1.42;;;29.20;40.00;;;;;;4937231;28;45090;-68
2022/07/26 03:39:14;;;;;;;3.35;1.40;;;29.20;39.90;;;;;;4907034;28;44956;-68
2022/07/26 03:41:40;;;;;;;2.72;1.20;;;29.20;39.90;;;;;;4931836;28;44935;-68
2022/07/26 03:44:06;;;;;;;1.98;1.02;;;29.20;39.90;;;;;;4922025;28;45085;-68
2022/07/26 03:46:33;;;;;;;2.92;1.40;;;29.20;39.90;;;;;;4933129;28;44912;-68
2022/07/26 03:48:59;;;;;;;4.65;1.45;;;29.20;39.90;;;;;;4918230;28;45001;-68
2022/07/26 03:51:25;;;;;;;5.20;1.38;;;29.20;39.80;;;;;;4904522;28;45183;-69
2022/07/26 03:53:51;;;;;;;2.97;1.35;;;29.20;39.90;;;;;;4924602;28;45875;-68
2022/07/26 03:56:33;;;;;;;1.35;0.90;;;29.10;39.80;;;;;;4927690;28;45272;-68
2022/07/26 03:59:09;;;;;;;1.58;1.17;;;29.20;39.80;;;;;;4943035;28;44719;-68
2022/07/26 04:01:40;;;;;;;2.25;1.08;;;29.20;39.70;;;;;;4887105;28;45303;-68
2022/07/26 04:04:10;;;;;;;2.00;1.20;;;29.20;39.80;;;;;;4918544;28;45441;-68
2022/07/26 04:06:37;;;;;;;3.95;1.17;;;29.20;39.80;;;;;;4902875;28;44944;-68
2022/07/26 04:09:03;;;;;;;2.45;1.30;;;29.20;39.80;;;;;;4917080;28;44808;-68
2022/07/26 04:11:30;;;;;;;1.88;1.25;;;29.20;39.80;;;;;;4921453;28;44941;-69
2022/07/26 04:13:56;;;;;;;3.63;1.50;;;29.20;39.70;;;;;;4906352;28;45256;-69
2022/07/26 04:16:23;;;;;;;3.65;1.23;;;29.20;39.70;;;;;;4915816;28;44982;-69
2022/07/26 04:18:49;;;;;;;6.00;1.67;;;29.20;39.70;;;;;;4902764;28;44928;-68
2022/07/26 04:21:16;;;;;;;3.80;1.30;;;29.20;39.70;;;;;;4916531;28;45219;-68
2022/07/26 04:23:42;;;;;;;6.25;1.50;;;29.30;39.80;;;;;;4917924;28;45819;-68
2022/07/26 04:26:08;;;;;;;3.83;1.35;;;29.30;39.80;;;;;;4919601;28;45233;-69
2022/07/26 04:28:35;;;;;;;2.05;1.20;;;29.30;39.80;;;;;;4918117;28;44973;-68
2022/07/26 04:31:01;;;;;;;2.58;1.10;;;29.30;39.80;;;;;;4920287;28;44786;-68
2022/07/26 04:33:27;;;;;;;9.73;1.40;;;29.30;39.80;;;;;;4887684;29;45135;-68
2022/07/26 04:35:54;;;;;;;2.00;1.40;;;29.30;39.70;;;;;;4915949;28;45151;-68
2022/07/26 04:38:20;;;;;;;3.80;1.42;;;29.30;39.70;;;;;;4922250;28;45463;-68
2022/07/26 04:40:46;;;;;;;4.38;1.55;;;29.30;39.80;;;;;;4906780;28;44948;-68
2022/07/26 04:43:12;;;;;;;1.95;1.30;;;29.30;39.80;;;;;;4924153;28;44971;-68
2022/07/26 04:45:39;;;;;;;1.25;0.93;;;29.30;39.80;;;;;;4926036;28;44992;-67
2022/07/26 04:48:05;;;;;;;2.72;1.23;;;29.30;39.80;;;;;;4924207;28;45168;-68
2022/07/26 04:50:32;;;;;;;3.28;1.67;;;29.30;39.70;;;;;;4926683;28;44959;-68
2022/07/26 04:52:58;;;;;;;4.30;1.20;;;29.30;39.70;;;;;;4923872;28;45483;-69
2022/07/26 04:55:24;;;;;;;3.53;1.30;;;29.30;39.70;;;;;;4921717;28;44988;-68
2022/07/26 04:57:50;;;;;;;2.35;1.13;;;29.30;39.70;;;;;;4917312;28;44891;-69
2022/07/26 05:00:20;;;;;;;4.07;1.38;;;29.30;39.70;;;;;;4917328;28;45146;-68
2022/07/26 05:02:48;;;;;;;4.53;1.40;;;29.30;39.70;;;;;;4914493;28;45322;-68
2022/07/26 05:05:14;;;;;;;2.50;1.35;;;29.30;39.20;;;;;;4924817;28;44910;-68
2022/07/26 05:07:45;;;;;;;6.55;1.45;;;29.30;39.60;;;;;;4933371;28;44824;-69
2022/07/26 05:10:13;;;;;;;2.40;1.00;;;29.40;39.60;;;;;;4932958;28;45297;-68
2022/07/26 05:12:39;;;;;;;5.82;1.35;;;29.30;39.60;;;;;;4928159;28;46118;-68
2022/07/26 05:15:06;;;;;;;6.07;1.40;;;29.30;39.50;;;;;;4907974;28;45099;-68
2022/07/26 05:17:33;;;;;;;3.30;1.23;;;29.30;39.50;;;;;;4939870;28;45160;-69
2022/07/26 05:19:59;;;;;;;2.65;1.50;;;29.30;39.50;;;;;;4915106;28;45138;-68
2022/07/26 05:22:25;;;;;;;3.15;1.15;;;29.30;39.50;;;;;;4924116;28;45933;-68
2022/07/26 05:24:51;;;;;;;4.40;1.55;;;29.30;39.50;;;;;;4928901;28;45221;-68
2022/07/26 05:27:18;;;;;;;1.40;1.02;;;29.30;39.40;;;;;;4927405;28;44821;-69
2022/07/26 05:29:44;;;;;;;2.10;1.27;;;29.30;39.50;;;;;;4941480;28;45184;-70
2022/07/26 05:32:10;;;;;;;2.28;1.08;;;29.30;39.50;;;;;;4931713;28;45015;-68
2022/07/26 05:34:37;;;;;;;2.72;1.20;;;29.30;39.40;;;;;;4941843;28;44922;-69
2022/07/26 05:37:03;;;;;;;2.55;1.10;;;29.30;39.40;;;;;;4930545;28;44973;-68
2022/07/26 05:39:29;;;;;;;3.15;1.40;;;29.40;39.40;;;;;;4944934;28;45434;-68
2022/07/26 05:41:55;;;;;;;3.70;1.42;;;29.50;39.40;;;;;;4913636;28;44866;-68
2022/07/26 05:44:23;;;;;;;5.00;1.23;;;29.50;39.40;;;;;;4925902;28;45023;-68
2022/07/26 05:46:49;;;;;;;4.53;1.23;;;29.40;39.40;;;;;;4947690;28;44855;-68
2022/07/26 05:49:16;;;;;;;3.35;1.23;;;29.40;39.50;;;;;;4911394;28;45471;-68
2022/07/26 05:51:42;;;;;;;2.72;1.50;;;29.40;39.50;;;;;;4920321;28;46077;-68
2022/07/26 05:54:08;;;;;;;2.33;1.10;;;29.40;39.60;;;;;;4926516;28;44796;-69
2022/07/26 05:56:35;;;;;;;4.57;1.33;;;29.30;39.60;;;;;;4914111;28;44925;-68
2022/07/26 05:59:01;;;;;;;2.55;1.20;;;29.40;39.60;;;;;;4926911;28;45041;-62
2022/07/26 06:01:31;;;;;;;3.78;1.38;;;29.40;39.70;;;;;;4946361;28;45882;-62
2022/07/26 06:03:58;;;;;;;2.53;1.27;;;29.40;39.70;;;;;;4943515;28;45239;-62
2022/07/26 06:06:24;;;;;;;3.35;1.45;;;29.30;39.60;;;;;;4941694;28;44931;-62
2022/07/26 06:08:50;;;;;;;2.10;0.90;;;29.40;39.60;;;;;;4941982;28;44799;-61
2022/07/26 06:11:17;;;;;;;2.65;1.35;;;29.40;39.60;;;;;;4944817;28;45286;-61
2022/07/26 06:13:43;;;;;;;2.65;1.27;;;29.40;39.70;;;;;;4941384;28;44910;-61
2022/07/26 06:16:09;;;;;;;1.90;1.00;;;29.40;39.70;;;;;;4941018;28;44895;-61
2022/07/26 06:18:35;;;;;;;4.13;1.23;;;29.50;39.70;;;;;;4937999;28;45172;-61
2022/07/26 06:21:02;;;;;;;2.35;1.30;;;29.50;39.70;;;;;;4921744;28;45521;-61
2022/07/26 06:23:28;;;;;;;2.60;1.30;;;29.50;39.80;;;;;;4943666;28;44684;-61
2022/07/26 06:25:54;;;;;;;4.65;1.40;;;29.50;39.80;;;;;;4941967;28;45062;-61
2022/07/26 06:28:21;;;;;;;1.98;1.20;;;29.50;39.80;;;;;;4942413;28;44710;-62
2022/07/26 06:30:47;;;;;;;1.92;1.20;;;29.50;39.80;;;;;;4941168;28;47212;-61
2022/07/26 06:33:14;;;;;;;2.40;1.25;;;29.50;39.90;;;;;;4945027;28;44918;-59
2022/07/26 06:35:41;;;;;;;3.42;1.48;;;29.40;39.90;;;;;;4940767;28;45022;-61
2022/07/26 06:38:07;;;;;;;3.08;1.40;;;29.50;39.90;;;;;;4942726;28;44942;-60
2022/07/26 06:40:34;;;;;;;5.03;1.75;;;29.50;39.90;;;;;;4939084;28;45737;-61
2022/07/26 06:43:00;;;;;;;2.20;1.20;;;29.50;40.00;;;;;;4940494;28;45675;-62
2022/07/26 06:45:27;;;;;;;2.10;1.20;;;29.50;40.00;;;;;;4942106;28;45121;-59
2022/07/26 06:47:54;;;;;;;2.58;1.20;;;29.50;40.00;;;;;;4923412;28;45304;-61
2022/07/26 06:50:20;;;;;;;3.97;1.50;;;29.50;40.10;;;;;;4942045;28;45216;-60
2022/07/26 06:52:47;;;;;;;3.45;1.80;;;29.50;40.00;;;;;;4946136;28;45282;-64
2022/07/26 06:55:13;;;;;;;10.70;1.60;;;29.50;40.10;;;;;;4939738;28;45223;-61
2022/07/26 06:57:39;;;;;;;4.30;1.45;;;29.60;40.10;;;;;;4942946;28;45363;-62
2022/07/26 07:00:07;;;;;;;3.28;1.23;;;29.60;40.00;;;;;;4943459;28;46334;-61
2022/07/26 07:02:33;;;;;;;2.15;1.10;;;29.60;40.00;;;;;;4926056;28;44902;-61
2022/07/26 07:05:00;;;;;;;2.85;1.35;;;29.60;39.80;;;;;;4939756;28;45057;-61
2022/07/26 07:07:26;;;;;;;3.38;1.23;;;29.60;39.80;;;;;;4924746;28;45188;-60
2022/07/26 07:09:52;;;;;;;1.92;1.10;;;29.60;39.90;;;;;;4939546;28;46056;-62
2022/07/26 07:12:19;;;;;;;3.17;1.30;;;29.60;39.90;;;;;;4941282;28;44858;-61
2022/07/26 07:14:45;;;;;;;1.83;1.00;;;29.60;40.00;;;;;;4935921;28;45029;-59
2022/07/26 07:17:11;;;;;;;3.78;1.10;;;29.70;40.60;;;;;;4939061;28;45211;-61
2022/07/26 07:19:37;;;;;;;3.70;1.17;;;29.60;39.90;;;;;;4940586;28;44960;-62
2022/07/26 07:22:04;;;;;;;4.07;1.30;;;29.70;39.90;;;;;;4939668;28;45092;-62
2022/07/26 07:24:31;;;;;;;2.35;1.00;;;29.70;39.80;;;;;;4936466;28;45014;-61
2022/07/26 07:26:59;;;;;;;3.60;1.40;;;29.70;39.70;;;;;;4939842;28;45238;-60
2022/07/26 07:29:25;;;;;;;3.63;1.27;;;29.80;39.80;;;;;;4942555;28;46024;-59
2022/07/26 07:31:51;;;;;;;1.85;1.13;;;29.70;39.70;;;;;;4927014;28;45309;-61
2022/07/26 07:34:21;;;;;;;4.95;1.30;;;29.70;39.70;;;;;;4940977;28;45073;-61
2022/07/26 07:36:48;;;;;;;4.60;1.50;;;29.80;39.70;;;;;;4940464;28;45192;-61
2022/07/26 07:39:15;;;;;;;4.55;1.30;;;29.80;39.60;;;;;;4937677;28;46066;-61
2022/07/26 07:41:43;;;;;;;3.95;1.23;;;29.80;39.60;;;;;;4912568;28;45019;-62
2022/07/26 07:44:09;;;;;;;4.68;1.00;;;29.80;39.40;;;;;;4944583;28;45198;-62
2022/07/26 07:46:35;;;;;;;2.63;1.25;;;29.80;39.20;;;;;;4944842;28;44999;-61
2022/07/26 07:49:01;;;;;;;1.25;1.00;;;29.80;39.20;;;;;;4937304;28;45314;-61
2022/07/26 07:51:28;;;;;;;3.53;1.17;;;29.80;39.30;;;;;;4941237;28;44921;-60
2022/07/26 07:53:54;;;;;;;1.42;1.05;;;29.80;39.20;;;;;;4938515;28;44784;-61
2022/07/26 07:56:20;;;;;;;1.70;0.88;;;29.80;39.20;;;;;;4939993;28;45062;-62
2022/07/26 07:58:47;;;;;;;3.03;0.95;;;29.70;39.10;;;;;;4938380;28;46165;-61
2022/07/26 08:01:13;;;;;;;3.78;1.00;;;29.70;39.10;;;;;;4941689;28;44870;-61
2022/07/26 08:03:39;;;;;;;2.38;1.10;;;29.80;39.20;;;;;;4939576;28;44918;-62
2022/07/26 08:06:07;;;;;;;4.22;1.10;;;29.70;38.90;;;;;;4937343;28;45024;-60
2022/07/26 08:08:34;;;;;;;3.05;1.00;;;29.70;38.70;;;;;;4943640;28;45027;-60
2022/07/26 08:11:00;;;;;;;1.80;0.95;;;29.60;38.50;;;;;;4918917;28;44940;-61
2022/07/26 08:13:26;;;;;;;2.60;1.20;;;29.70;38.50;;;;;;4937000;28;44666;-59
2022/07/26 08:15:53;;;;;;;1.75;0.93;;;29.70;38.40;;;;;;4937512;28;45289;-61
2022/07/26 08:18:20;;;;;;;2.75;1.10;;;29.60;38.30;;;;;;4942104;28;46289;-60
2022/07/26 08:20:46;;;;;;;1.58;0.82;;;29.60;38.10;;;;;;4906537;28;44969;-61
2022/07/26 08:23:12;;;;;;;7.53;1.50;;;29.70;38.20;;;;;;4938679;28;45009;-61
2022/07/26 08:25:37;;;;;;;2.78;1.00;;;29.70;38.00;;;;;;4940190;28;45289;-61
2022/07/26 08:28:03;;;;;;;3.65;1.00;;;29.70;38.00;;;;;;4934746;28;46198;-62
2022/07/26 08:30:30;;;;;;;6.10;1.30;;;29.80;37.80;;;;;;4926986;28;45215;-61
2022/07/26 08:32:55;;;;;;;1.17;1.00;;;29.70;37.60;;;;;;4941787;28;45143;-60
2022/07/26 08:35:21;;;;;;;3.08;0.93;;;29.70;37.40;;;;;;4920375;28;45325;-60
2022/07/26 08:37:46;;;;;;;5.75;0.90;;;29.70;37.20;;;;;;4934273;28;45349;-60
2022/07/26 08:40:12;;;;;;;2.08;0.80;;;29.70;37.10;;;;;;4938954;28;45163;-61
2022/07/26 08:42:37;;;;;;;3.78;0.90;;;29.60;37.00;;;;;;4936995;28;45235;-61
2022/07/26 08:45:03;;;;;;;3.28;0.90;;;29.60;37.00;;;;;;4925429;28;45496;-61
2022/07/26 08:47:29;;;;;;;2.55;0.93;;;29.60;36.90;;;;;;4920500;28;46188;-61
2022/07/26 08:49:54;;;;;;;0.68;0.55;;;29.60;36.80;;;;;;4923890;28;45035;-61
2022/07/26 08:52:20;;;;;;;3.67;0.77;;;29.70;36.60;;;;;;4920609;28;44914;-61
2022/07/26 08:54:48;;;;;;;4.95;0.93;;;29.60;36.40;;;;;;4935108;28;44859;-62
2022/07/26 08:57:14;;;;;;;1.70;0.85;;;29.70;36.30;;;;;;4939925;28;46114;-61
2022/07/26 08:59:39;;;;;;;1.90;1.17;;;29.70;36.30;;;;;;4939722;28;45397;-62
2022/07/26 09:02:07;;;;;;;1.52;0.70;;;29.70;36.10;;;;;;4934944;28;44766;-61
2022/07/26 09:04:43;;;;;;;2.25;0.95;;;29.70;35.90;;;;;;4932737;28;45113;-61
2022/07/26 09:07:14;;;;;;;2.17;0.90;;;29.70;35.20;;;;;;4940171;28;45410;-60
2022/07/26 09:09:58;;;;;;;3.53;0.70;;;29.70;35.70;;;;;;4922322;28;44902;-59
2022/07/26 09:12:25;;;;;;;1.83;0.63;;;29.70;35.00;;;;;;4919454;28;45485;-59
2022/07/26 09:14:51;;;;;;;2.60;0.80;;;29.80;35.70;;;;;;4936414;28;45234;-61
2022/07/26 09:17:18;;;;;;;1.65;0.60;;;29.70;36.30;;;;;;4935149;28;46065;-60
2022/07/26 09:19:44;;;;;;;4.53;1.13;;;29.80;35.70;;;;;;4940823;28;44958;-61
2022/07/26 09:22:11;;;;;;;1.73;0.88;;;29.70;35.90;;;;;;4926265;28;44837;-59
2022/07/26 09:24:41;;;;;;;2.20;1.00;;;29.70;36.00;;;;;;4941326;28;45780;-61
2022/07/26 09:27:09;;;;;;;6.00;0.90;;;29.70;35.90;;;;;;4937907;28;45275;-59
2022/07/26 09:29:46;;;;;;;1.33;0.80;;;29.70;36.10;;;;;;4939699;28;45035;-61
2022/07/26 09:32:23;;;;;;;4.50;0.80;;;29.70;35.80;;;;;;4936872;28;45326;-61
2022/07/26 09:34:55;;;;;;;2.45;0.95;;;29.80;35.70;;;;;;4925752;28;45481;-61
2022/07/26 09:37:37;;;;;;;4.68;0.73;;;29.70;35.90;;;;;;4944306;28;45066;-61
2022/07/26 09:40:26;;;;;;;4.40;0.80;;;29.60;35.80;;;;;;4922930;28;45202;-59
2022/07/26 09:43:02;;;;;;;2.22;0.90;;;29.70;36.10;;;;;;4940104;28;45117;-61
2022/07/26 09:45:28;;;;;;;2.83;0.90;;;29.60;36.10;;;;;;4936070;28;44973;-61
2022/07/26 09:47:54;;;;;;;1.25;0.68;;;29.60;36.50;;;;;;4923199;28;46569;-60
2022/07/26 09:50:22;;;;;;;3.92;1.15;;;29.60;36.50;;;;;;4923002;28;44709;-62
2022/07/26 09:53:07;;;;;;;6.25;1.08;;;29.60;36.40;;;;;;4940295;28;45257;-62
2022/07/26 09:55:34;;;;;;;4.43;1.55;;;29.60;35.60;;;;;;4933194;28;45026;-61
2022/07/26 09:58:02;;;;;;;2.10;0.95;;;29.60;35.50;;;;;;4936034;28;46258;-61
2022/07/26 10:00:29;;;;;;;2.97;0.80;;;29.70;35.40;;;;;;4941295;28;45059;-62
2022/07/26 10:02:55;;;;;;;4.90;0.90;;;29.70;35.00;;;;;;4939953;28;44989;-62
2022/07/26 10:05:20;;;;;;;4.15;0.70;;;29.70;34.90;;;;;;4934465;28;44939;-61
2022/07/26 10:07:48;;;;;;;6.10;1.02;;;29.60;34.90;;;;;;4919578;28;45177;-61
2022/07/26 10:10:17;;;;;;;1.52;0.93;;;29.70;34.80;;;;;;4910576;28;44937;-60
2022/07/26 10:12:44;;;;;;;3.20;1.00;;;29.70;34.80;;;;;;4917501;28;45623;-59
2022/07/26 10:15:35;;;;;;;7.38;1.30;;;29.70;34.70;;;;;;4917027;28;44988;-60
2022/07/26 10:18:01;;;;;;;1.70;0.70;;;29.70;34.00;;;;;;4945247;28;45052;-60
2022/07/26 10:20:56;;;;;;;2.55;0.50;;;29.80;34.60;;;;;;4949625;28;45146;-59
2022/07/26 10:23:37;;;;;;;2.25;0.90;;;29.70;33.60;;;;;;4935530;28;44762;-59
2022/07/26 10:26:03;;;;;;;1.75;0.75;;;29.80;33.80;;;;;;4938675;28;45162;-59
2022/07/26 10:28:29;;;;;;;1.85;0.80;;;29.80;34.30;;;;;;4950254;28;46354;-59
2022/07/26 10:31:33;;;;;;;4.38;0.90;;;29.70;34.20;;;;;;4927233;28;47188;-59
2022/07/26 10:33:59;;;;;;;3.15;0.70;;;29.80;33.40;;;;;;4943230;28;45290;-59
2022/07/26 10:36:30;;;;;;;1.40;0.45;;;29.70;34.00;;;;;;4946012;28;45291;-58
2022/07/26 10:39:00;;;;;;;1.45;0.60;;;29.80;33.80;;;;;;4930063;28;46230;-58
2022/07/26 10:41:37;;;;;;;1.08;0.50;;;29.80;33.70;;;;;;4924343;28;45986;-59
2022/07/26 10:44:22;;;;;;;3.15;0.80;;;29.80;33.30;;;;;;4928061;28;44856;-60
2022/07/26 10:47:06;;;;;;;0.90;0.50;;;29.70;32.80;;;;;;4942643;28;45016;-60
2022/07/26 10:49:37;;;;;;;3.08;0.70;;;29.70;32.30;;;;;;4939472;28;45718;-59
2022/07/26 10:52:18;;;;;;;1.73;0.50;;;29.60;33.20;;;;;;4943124;28;44872;-60
2022/07/26 10:54:59;;;;;;;3.05;0.70;;;29.60;32.90;;;;;;4938893;28;45311;-60
2022/07/26 10:57:28;;;;;;;5.63;0.70;;;29.70;32.40;;;;;;4944424;28;45266;-59
2022/07/26 10:59:57;;;;;;;3.70;0.65;;;29.70;32.80;;;;;;4936287;28;46044;-60
2022/07/26 11:02:25;;;;;;;2.13;0.50;;;29.70;32.80;;;;;;4938194;28;45257;-61
2022/07/26 11:04:58;;;;;;;0.90;0.60;;;29.70;32.70;;;;;;4945936;28;45001;-65
2022/07/26 11:07:29;;;;;;;2.47;0.70;;;29.70;32.00;;;;;;4925136;28;44996;-59
2022/07/26 11:09:57;;;;;;;0.88;0.57;;;29.60;32.40;;;;;;4949192;28;45127;-61
2022/07/26 11:12:24;;;;;;;1.27;0.55;;;29.70;32.20;;;;;;4939432;28;45092;-61
2022/07/26 11:14:53;;;;;;;2.55;0.40;;;29.70;32.00;;;;;;4938346;28;45638;-61
2022/07/26 11:17:26;;;;;;;1.95;0.60;;;29.70;32.20;;;;;;4943087;28;45273;-58
2022/07/26 11:19:53;;;;;;;5.07;0.50;;;29.80;31.50;;;;;;4937122;28;45028;-60
2022/07/26 11:22:20;;;;;;;3.22;0.55;;;29.80;31.60;;;;;;4948800;28;45198;-62
2022/07/26 11:24:46;;;;;;;2.08;0.40;;;29.80;31.40;;;;;;4910315;28;45025;-69
2022/07/26 11:27:11;;;;;;;5.55;0.80;;;29.80;31.20;;;;;;4928958;28;44846;-69
2022/07/26 11:29:37;;;;;;;1.83;0.57;;;29.80;31.30;;;;;;4888217;28;47146;-70
2022/07/26 11:32:03;;;;;;;2.10;0.50;;;29.80;31.40;;;;;;4942510;28;44963;-68
2022/07/26 11:34:34;;;;;;;1.30;0.35;;;29.80;31.20;;;;;;4925372;28;45216;-68
2022/07/26 11:37:03;;;;;;;1.40;0.47;;;29.80;31.20;;;;;;4925667;28;45085;-70
2022/07/26 11:39:33;;;;;;;1.40;0.60;;;29.80;30.90;;;;;;4942708;28;45417;-70
2022/07/26 11:42:10;;;;;;;0.57;0.40;;;29.80;31.00;;;;;;4909230;28;45456;-68
2022/07/26 11:44:36;;;;;;;2.28;0.65;;;29.70;30.70;;;;;;4927245;28;45068;-69
2022/07/26 11:47:15;;;;;;;2.50;0.60;;;29.80;31.20;;;;;;4936641;28;45163;-69
2022/07/26 11:49:41;;;;;;;2.08;0.50;;;29.80;30.40;;;;;;4922764;28;45946;-69
2022/07/26 11:52:07;;;;;;;2.15;0.50;;;29.80;31.00;;;;;;4923999;28;44750;-68
2022/07/26 11:54:45;;;;;;;2.55;0.40;;;29.80;31.00;;;;;;4911663;28;45158;-70
2022/07/26 11:57:11;;;;;;;1.52;0.52;;;29.90;30.50;;;;;;4910819;28;44691;-70
2022/07/26 11:59:37;;;;;;;2.63;0.40;;;29.90;31.00;;;;;;4923968;28;46056;-68
2022/07/26 12:02:06;;;;;;;1.55;0.60;;;29.90;31.00;;;;;;4927726;28;44918;-68
2022/07/26 12:04:37;;;;;;;1.77;0.40;;;29.90;30.90;;;;;;4906352;28;45061;-67
2022/07/26 12:07:13;;;;;;;2.45;0.50;;;30.00;31.00;;;;;;4893192;28;45206;-69
2022/07/26 12:09:46;;;;;;;2.10;0.52;;;30.00;30.70;;;;;;4892822;28;46109;-71
2022/07/26 12:12:28;;;;;;;2.25;0.55;;;30.00;30.20;;;;;;4905618;28;45131;-71
2022/07/26 12:15:01;;;;;;;5.25;0.60;;;30.00;30.00;;;;;;4876980;28;45030;-71
2022/07/26 12:17:27;;;;;;;1.30;0.50;;;30.00;29.90;;;;;;4862746;28;45050;-72
2022/07/26 12:19:53;;;;;;;3.40;0.68;;;30.00;30.40;;;;;;4910154;28;45017;-72
2022/07/26 12:22:20;;;;;;;2.45;0.50;;;30.00;30.50;;;;;;4907600;28;45649;-71
2022/07/26 12:24:55;;;;;;;1.67;0.50;;;30.00;30.30;;;;;;4896340;28;44916;-68
2022/07/26 12:27:25;;;;;;;1.55;0.80;;;30.00;30.00;;;;;;4921932;28;45222;-69
2022/07/26 12:29:54;;;;;;;5.70;0.40;;;30.00;30.20;;;;;;4906162;28;44973;-69
2022/07/26 12:32:27;;;;;;;1.77;0.52;;;30.00;30.20;;;;;;4922309;28;45230;-69
2022/07/26 12:34:56;;;;;;;;;;;30.10;30.00;;;;;;4892973;28;45138;-70
2022/07/26 12:37:22;;;;;;;2.08;0.60;;;30.00;29.30;;;;;;4918398;28;45209;-68
2022/07/26 12:39:59;;;;;;;1.40;0.60;;;30.00;30.00;;;;;;4909570;28;46351;-69
2022/07/26 12:42:27;;;;;;;3.08;0.47;;;30.10;29.80;;;;;;4903800;28;45389;-68
2022/07/26 12:44:53;;;;;;;1.90;1.02;;;30.10;30.40;;;;;;4902534;28;45082;-69
2022/07/26 12:47:18;;;;;;;2.05;0.85;;;30.20;30.40;;;;;;4888886;28;44891;-68
2022/07/26 12:49:45;;;;;;;2.22;0.88;;;30.20;30.50;;;;;;4908446;28;46071;-67
2022/07/26 12:52:13;;;;;;;2.78;0.93;;;30.20;30.60;;;;;;4924677;28;45169;-68
2022/07/26 12:54:39;;;;;;;2.72;0.90;;;30.20;30.60;;;;;;4896425;28;45248;-68
2022/07/26 12:57:05;;;;;;;4.20;1.02;;;30.20;30.70;;;;;;4896799;28;45110;-68
2022/07/26 12:59:31;;;;;;;6.30;1.02;;;30.10;30.80;;;;;;4910310;28;45878;-68
2022/07/26 13:01:56;;;;;;;8.65;0.95;;;30.10;31.20;;;;;;4915862;28;44976;-68
2022/07/26 13:04:23;;;;;;;8.73;1.10;;;30.00;31.30;;;;;;4913088;28;45143;-68
2022/07/26 13:06:48;;;;;;;6.05;1.38;;;30.00;31.40;;;;;;4919603;28;45032;-68
2022/07/26 13:09:14;;;;;;;3.97;0.75;;;30.00;31.40;;;;;;4926010;28;45484;-68
2022/07/26 13:11:39;;;;;;;3.88;0.70;;;30.00;31.40;;;;;;4925359;28;45046;-69
2022/07/26 13:14:05;;;;;;;2.78;0.60;;;30.10;31.40;;;;;;4926237;28;44965;-68
2022/07/26 13:16:30;;;;;;;3.55;0.88;;;30.10;31.30;;;;;;4925532;28;45270;-68
2022/07/26 13:18:56;;;;;;;2.58;0.80;;;30.10;31.30;;;;;;4924057;28;46203;-69
2022/07/26 13:21:22;;;;;;;1.35;0.63;;;30.10;31.20;;;;;;4895573;28;45578;-68
2022/07/26 13:23:47;;;;;;;1.77;0.50;;;30.10;31.10;;;;;;4909207;28;44606;-68
2022/07/26 13:26:13;;;;;;;1.95;1.08;;;30.10;31.00;;;;;;4911693;28;44898;-70
2022/07/26 13:28:39;;;;;;;1.88;0.60;;;30.20;31.10;;;;;;4928583;28;45451;-70
2022/07/26 13:31:05;;;;;;;3.20;0.75;;;30.10;31.00;;;;;;4921813;28;45666;-69
2022/07/26 13:33:31;;;;;;;4.80;1.00;;;30.20;31.00;;;;;;4906852;28;45152;-68
2022/07/26 13:35:57;;;;;;;2.22;0.68;;;30.20;30.90;;;;;;4910050;28;45076;-68
2022/07/26 13:38:22;;;;;;;4.32;0.60;;;30.20;30.70;;;;;;4926630;28;46211;-70
2022/07/26 13:40:49;;;;;;;3.60;0.80;;;30.20;30.80;;;;;;4926756;28;44958;-72
2022/07/26 13:43:15;;;;;;;1.67;0.80;;;30.20;30.60;;;;;;4922264;28;45228;-71
2022/07/26 13:45:40;;;;;;;3.53;0.50;;;30.30;30.80;;;;;;4912081;28;45140;-70
2022/07/26 13:48:06;;;;;;;3.45;0.88;;;30.30;30.60;;;;;;4923762;28;45429;-68
2022/07/26 13:50:32;;;;;;;4.78;0.70;;;30.30;30.40;;;;;;4916822;28;45828;-69
2022/07/26 13:52:57;;;;;;;1.95;0.63;;;30.30;30.30;;;;;;4921223;28;44990;-69
2022/07/26 13:55:23;;;;;;;2.33;0.55;;;30.30;30.30;;;;;;4926008;28;44769;-69
2022/07/26 13:57:49;;;;;;;3.20;0.65;;;30.30;30.00;;;;;;4888802;28;46811;-70
2022/07/26 14:00:15;;;;;;;1.75;0.60;;;30.30;30.10;;;;;;4921703;28;46290;-69
2022/07/26 14:02:40;;;;;;;2.15;0.63;;;30.40;29.80;;;;;;4925696;28;45403;-69
2022/07/26 14:05:06;;;;;;;1.10;0.43;;;30.40;29.90;;;;;;4942864;28;44951;-69
2022/07/26 14:07:32;;;;;;;3.03;0.63;;;30.40;30.10;;;;;;4948271;28;45530;-68
2022/07/26 14:09:57;;;;;;;1.88;0.77;;;30.40;29.60;;;;;;4945461;28;45126;-70
2022/07/26 14:12:23;;;;;;;1.45;0.65;;;30.30;29.40;;;;;;4927159;28;45016;-68
2022/07/26 14:14:48;;;;;;;4.38;0.75;;;30.30;29.30;;;;;;4946860;28;45143;-68
2022/07/26 14:17:14;;;;;;;0.80;0.70;;;30.30;29.30;;;;;;4912146;28;44881;-69
2022/07/26 14:19:39;;;;;;;3.60;0.90;;;30.30;29.20;;;;;;4944859;28;45109;-69
2022/07/26 14:22:06;;;;;;;1.75;0.55;;;30.30;29.10;;;;;;4926905;28;44885;-70
2022/07/26 14:24:32;;;;;;;1.35;0.50;;;30.30;29.10;;;;;;4946511;28;44997;-70
2022/07/26 14:26:58;;;;;;;2.03;0.75;;;30.30;28.90;;;;;;4931633;28;45472;-67
2022/07/26 14:29:23;;;;;;;3.28;0.50;;;30.40;29.00;;;;;;4939398;28;45210;-67
2022/07/26 14:31:49;;;;;;;1.63;0.60;;;30.30;28.80;;;;;;4944739;28;44938;-69
2022/07/26 14:34:14;;;;;;;1.75;0.30;;;30.30;28.90;;;;;;4914935;28;45164;-68
2022/07/26 14:36:40;;;;;;;1.13;0.38;;;30.40;28.70;;;;;;4924919;28;47665;-67
2022/07/26 14:39:05;;;;;;;1.60;0.52;;;30.40;28.60;;;;;;4930029;28;45242;-71
2022/07/26 14:41:31;;;;;;;1.58;0.57;;;30.50;28.60;;;;;;4942881;28;45163;-71
2022/07/26 14:43:57;;;;;;;1.00;0.20;;;30.50;28.40;;;;;;4943703;28;44970;-69
2022/07/26 14:46:22;;;;;;;1.95;0.50;;;30.50;28.40;;;;;;4911939;28;46615;-69
2022/07/26 14:48:48;;;;;;;1.35;0.40;;;30.60;28.40;;;;;;4912393;28;44970;-68
2022/07/26 14:51:13;;;;;;;2.22;0.20;;;30.60;28.30;;;;;;4926052;28;44816;-70
2022/07/26 14:53:40;;;;;;;1.58;0.60;;;30.60;28.20;;;;;;4925696;28;45221;-68
2022/07/26 14:56:06;;;;;;;0.28;0.20;;;30.70;28.00;;;;;;4943460;28;46009;-67
2022/07/26 14:58:32;;;;;;;0.50;0.30;;;30.70;28.10;;;;;;4940160;28;45023;-70
2022/07/26 15:00:57;;;;;;;0.22;0.20;;;30.70;27.90;;;;;;4911068;28;45362;-70
2022/07/26 15:03:23;;;;;;;0.50;0.30;;;30.70;27.80;;;;;;4928332;28;45220;-70
2022/07/26 15:05:48;;;;;;;1.73;0.40;;;30.70;27.70;;;;;;4912456;28;45049;-72
2022/07/26 15:08:14;;;;;;;1.13;0.40;;;30.80;27.70;;;;;;4915194;28;45106;-68
2022/07/26 15:10:39;;;;;;;2.53;0.28;;;30.80;27.60;;;;;;4931637;28;45271;-68
2022/07/26 15:13:05;;;;;;;2.05;0.50;;;30.80;27.70;;;;;;4944277;28;44908;-66
2022/07/26 15:15:31;;;;;;;0.65;0.40;;;30.90;27.60;;;;;;4913197;28;46043;-66
2022/07/26 15:17:57;;;;;;;3.70;0.55;;;30.90;27.60;;;;;;4911267;28;44993;-67
2022/07/26 15:20:23;;;;;;;1.25;0.45;;;30.90;27.70;;;;;;4932189;28;44814;-66
2022/07/26 15:22:49;;;;;;;1.92;0.55;;;30.90;27.80;;;;;;4924677;28;45301;-66
2022/07/26 15:25:14;;;;;;;1.33;0.47;;;31.00;28.20;;;;;;4923340;28;45993;-69
2022/07/26 15:27:40;;;;;;;3.67;0.60;;;31.00;27.70;;;;;;4913654;28;44808;-67
2022/07/26 15:30:06;;;;;;;2.30;0.95;;;31.00;27.70;;;;;;4942641;28;44850;-67
2022/07/26 15:32:32;;;;;;;2.92;0.80;;;31.00;27.70;;;;;;4940357;28;44791;-66
2022/07/26 15:34:58;;;;;;;3.90;0.60;;;31.00;27.70;;;;;;4926952;28;45024;-66
2022/07/26 15:37:23;;;;;;;2.45;0.73;;;31.00;27.80;;;;;;4946052;28;45109;-66
2022/07/26 15:39:49;;;;;;;4.63;0.55;;;31.00;27.70;;;;;;4946937;28;44955;-66
2022/07/26 15:42:15;;;;;;;3.17;0.63;;;31.10;27.80;;;;;;4897158;28;45012;-66
2022/07/26 15:44:40;;;;;;;1.85;0.98;;;31.10;27.80;;;;;;4948183;28;44976;-67
2022/07/26 15:47:06;;;;;;;2.10;0.60;;;31.10;27.80;;;;;;4910030;28;44955;-66
2022/07/26 15:49:31;;;;;;;1.63;0.55;;;31.10;27.90;;;;;;4925375;28;44917;-66
2022/07/26 15:51:57;;;;;;;0.98;0.43;;;31.10;27.90;;;;;;4914222;28;44922;-66